sensor_id;sensor_type;location;lat;lon;timestamp;temperature;humidity
35668;DHT22;22158;59.280;17.806;2022-09-13T00:00:48;12.90;99.90
35668;DHT22;22158;59.280;17.806;2022-09-13T00:03:14;12.90;99.90
35668;DHT22;22158;59.280;17.806;2022-09-13T00:05:40;12.90;99.90
35668;DHT22;22158;59.280;17.806;2022-09-13T00:08:06;12.90;99.90
35668;DHT22;22158;59.280;17.806;2022-09-13T00:10:33;12.90;99.90
35668;DHT22;22158;59.280;17.806;2022-09-13T00:12:59;12.90;99.90
35668;DHT22;22158;59.280;17.806;2022-09-13T00:15:25;12.90;99.90
35668;DHT22;22158;59.280;17.806;2022-09-13T00:17:51;12.90;99.90
35668;DHT22;22158;59.280;17.806;2022-09-13T00:20:16;13.00;99.90
35668;DHT22;22158;59.280;17.806;2022-09-13T00:22:42;12.90;99.90
35668;DHT22;22158;59.280;17.806;2022-09-13T00:25:08;12.90;99.90
35668;DHT22;22158;59.280;17.806;2022-09-13T00:27:35;12.90;99.90
35668;DHT22;22158;59.280;17.806;2022-09-13T00:30:05;12.90;99.90
35668;DHT22;22158;59.280;17.806;2022-09-13T00:32:32;12.90;99.90
35668;DHT22;22158;59.280;17.806;2022-09-13T00:34:58;12.90;99.90
35668;DHT22;22158;59.280;17.806;2022-09-13T00:37:24;13.00;99.90
35668;DHT22;22158;59.280;17.806;2022-09-13T00:39:49;13.00;99.90
35668;DHT22;22158;59.280;17.806;2022-09-13T00:42:15;13.00;99.90
35668;DHT22;22158;59.280;17.806;2022-09-13T00:44:58;13.00;99.90
35668;DHT22;22158;59.280;17.806;2022-09-13T00:47:25;13.00;99.90
35668;DHT22;22158;59.280;17.806;2022-09-13T00:49:57;13.00;99.90
35668;DHT22;22158;59.280;17.806;2022-09-13T00:52:27;13.00;99.90
35668;DHT22;22158;59.280;17.806;2022-09-13T00:55:01;13.00;99.90
35668;DHT22;22158;59.280;17.806;2022-09-13T00:57:28;13.00;99.90
35668;DHT22;22158;59.280;17.806;2022-09-13T01:02:27;13.00;99.90
35668;DHT22;22158;59.280;17.806;2022-09-13T01:04:53;13.00;99.90
35668;DHT22;22158;59.280;17.806;2022-09-13T01:07:19;13.00;99.90
35668;DHT22;22158;59.280;17.806;2022-09-13T01:09:47;13.10;99.90
35668;DHT22;22158;59.280;17.806;2022-09-13T01:12:41;13.00;99.90
35668;DHT22;22158;59.280;17.806;2022-09-13T01:15:11;13.10;99.90
35668;DHT22;22158;59.280;17.806;2022-09-13T01:17:38;13.10;99.90
35668;DHT22;22158;59.280;17.806;2022-09-13T01:20:05;13.10;99.90
35668;DHT22;22158;59.280;17.806;2022-09-13T01:33:59;13.20;99.90
35668;DHT22;22158;59.280;17.806;2022-09-13T01:39:13;13.20;99.90
35668;DHT22;22158;59.280;17.806;2022-09-13T01:50:52;13.30;99.90
35668;DHT22;22158;59.280;17.806;2022-09-13T01:52:55;13.30;99.90
35668;DHT22;22158;59.280;17.806;2022-09-13T02:01:10;13.30;99.90
35668;DHT22;22158;59.280;17.806;2022-09-13T02:06:14;13.30;99.90
35668;DHT22;22158;59.280;17.806;2022-09-13T02:08:55;13.30;99.90
35668;DHT22;22158;59.280;17.806;2022-09-13T02:11:22;13.40;99.90
35668;DHT22;22158;59.280;17.806;2022-09-13T02:13:55;13.40;99.90
35668;DHT22;22158;59.280;17.806;2022-09-13T02:16:30;13.40;99.90
35668;DHT22;22158;59.280;17.806;2022-09-13T02:19:00;13.50;99.90
35668;DHT22;22158;59.280;17.806;2022-09-13T02:21:31;13.50;99.90
35668;DHT22;22158;59.280;17.806;2022-09-13T02:24:05;13.50;99.90
35668;DHT22;22158;59.280;17.806;2022-09-13T02:26:34;13.50;99.90
35668;DHT22;22158;59.280;17.806;2022-09-13T02:29:05;13.50;99.90
35668;DHT22;22158;59.280;17.806;2022-09-13T02:32:13;13.50;99.90
35668;DHT22;22158;59.280;17.806;2022-09-13T02:34:36;13.50;99.90
35668;DHT22;22158;59.280;17.806;2022-09-13T02:37:05;13.50;99.90
35668;DHT22;22158;59.280;17.806;2022-09-13T02:39:35;13.50;99.90
35668;DHT22;22158;59.280;17.806;2022-09-13T02:42:22;13.60;99.90
35668;DHT22;22158;59.280;17.806;2022-09-13T02:44:55;13.60;99.90
35668;DHT22;22158;59.280;17.806;2022-09-13T02:47:43;13.60;99.90
35668;DHT22;22158;59.280;17.806;2022-09-13T02:53:14;13.60;99.90
35668;DHT22;22158;59.280;17.806;2022-09-13T02:59:37;13.60;99.90
35668;DHT22;22158;59.280;17.806;2022-09-13T03:01:37;13.60;99.90
35668;DHT22;22158;59.280;17.806;2022-09-13T03:04:05;13.60;99.90
35668;DHT22;22158;59.280;17.806;2022-09-13T03:06:32;13.70;99.90
35668;DHT22;22158;59.280;17.806;2022-09-13T03:09:02;13.70;99.90
35668;DHT22;22158;59.280;17.806;2022-09-13T03:11:50;13.70;99.90
35668;DHT22;22158;59.280;17.806;2022-09-13T03:14:38;13.70;99.90
35668;DHT22;22158;59.280;17.806;2022-09-13T03:27:58;13.80;99.90
35668;DHT22;22158;59.280;17.806;2022-09-13T03:30:27;13.90;99.90
35668;DHT22;22158;59.280;17.806;2022-09-13T03:33:04;13.90;99.90
35668;DHT22;22158;59.280;17.806;2022-09-13T03:38:16;14.00;99.90
35668;DHT22;22158;59.280;17.806;2022-09-13T03:40:58;14.00;99.90
35668;DHT22;22158;59.280;17.806;2022-09-13T03:46:18;14.10;99.90
35668;DHT22;22158;59.280;17.806;2022-09-13T03:48:46;14.10;99.90
35668;DHT22;22158;59.280;17.806;2022-09-13T03:51:13;14.10;99.90
35668;DHT22;22158;59.280;17.806;2022-09-13T03:53:44;14.10;99.90
35668;DHT22;22158;59.280;17.806;2022-09-13T03:56:16;14.10;99.90
35668;DHT22;22158;59.280;17.806;2022-09-13T03:58:42;14.10;99.90
35668;DHT22;22158;59.280;17.806;2022-09-13T04:01:08;14.10;99.90
35668;DHT22;22158;59.280;17.806;2022-09-13T04:03:36;14.20;99.90
35668;DHT22;22158;59.280;17.806;2022-09-13T04:06:02;14.20;99.90
35668;DHT22;22158;59.280;17.806;2022-09-13T04:08:28;14.20;99.90
35668;DHT22;22158;59.280;17.806;2022-09-13T04:10:53;14.20;99.90
35668;DHT22;22158;59.280;17.806;2022-09-13T04:13:19;14.20;99.90
35668;DHT22;22158;59.280;17.806;2022-09-13T04:15:47;14.30;99.90
35668;DHT22;22158;59.280;17.806;2022-09-13T04:18:13;14.30;99.90
35668;DHT22;22158;59.280;17.806;2022-09-13T04:20:38;14.30;99.90
35668;DHT22;22158;59.280;17.806;2022-09-13T04:23:04;14.30;99.90
35668;DHT22;22158;59.280;17.806;2022-09-13T04:25:30;14.30;99.90
35668;DHT22;22158;59.280;17.806;2022-09-13T04:27:56;14.30;99.90
35668;DHT22;22158;59.280;17.806;2022-09-13T04:30:26;14.30;99.90
35668;DHT22;22158;59.280;17.806;2022-09-13T04:32:52;14.40;99.90
35668;DHT22;22158;59.280;17.806;2022-09-13T04:35:22;14.40;99.90
35668;DHT22;22158;59.280;17.806;2022-09-13T04:37:48;14.40;99.90
35668;DHT22;22158;59.280;17.806;2022-09-13T04:40:13;14.50;99.90
35668;DHT22;22158;59.280;17.806;2022-09-13T04:42:39;14.50;99.90
35668;DHT22;22158;59.280;17.806;2022-09-13T04:45:05;14.50;99.90
35668;DHT22;22158;59.280;17.806;2022-09-13T04:47:31;14.50;99.90
35668;DHT22;22158;59.280;17.806;2022-09-13T04:49:57;14.50;99.90
35668;DHT22;22158;59.280;17.806;2022-09-13T04:52:22;14.50;99.90
35668;DHT22;22158;59.280;17.806;2022-09-13T04:54:48;14.50;99.90
35668;DHT22;22158;59.280;17.806;2022-09-13T04:57:14;14.50;99.90
35668;DHT22;22158;59.280;17.806;2022-09-13T04:59:41;14.50;99.90
35668;DHT22;22158;59.280;17.806;2022-09-13T05:02:07;14.60;99.90
35668;DHT22;22158;59.280;17.806;2022-09-13T05:04:33;14.60;99.90
35668;DHT22;22158;59.280;17.806;2022-09-13T05:06:58;14.60;99.90
35668;DHT22;22158;59.280;17.806;2022-09-13T05:09:24;14.60;99.90
35668;DHT22;22158;59.280;17.806;2022-09-13T05:11:50;14.60;99.90
35668;DHT22;22158;59.280;17.806;2022-09-13T05:14:15;14.70;99.90
35668;DHT22;22158;59.280;17.806;2022-09-13T05:16:41;14.70;99.90
35668;DHT22;22158;59.280;17.806;2022-09-13T05:19:08;14.80;99.90
35668;DHT22;22158;59.280;17.806;2022-09-13T05:21:34;14.80;99.90
35668;DHT22;22158;59.280;17.806;2022-09-13T05:24:00;14.80;99.90
35668;DHT22;22158;59.280;17.806;2022-09-13T05:26:27;14.80;99.90
35668;DHT22;22158;59.280;17.806;2022-09-13T05:28:56;14.80;99.90
35668;DHT22;22158;59.280;17.806;2022-09-13T05:31:30;14.80;99.90
35668;DHT22;22158;59.280;17.806;2022-09-13T05:33:58;14.90;99.90
35668;DHT22;22158;59.280;17.806;2022-09-13T05:36:25;14.90;99.90
35668;DHT22;22158;59.280;17.806;2022-09-13T05:38:55;14.90;99.90
35668;DHT22;22158;59.280;17.806;2022-09-13T05:41:21;14.90;99.90
35668;DHT22;22158;59.280;17.806;2022-09-13T05:43:47;14.90;99.90
35668;DHT22;22158;59.280;17.806;2022-09-13T05:46:15;14.90;99.90
35668;DHT22;22158;59.280;17.806;2022-09-13T05:48:41;14.90;99.90
35668;DHT22;22158;59.280;17.806;2022-09-13T05:51:12;15.00;99.90
35668;DHT22;22158;59.280;17.806;2022-09-13T05:53:39;15.00;99.90
35668;DHT22;22158;59.280;17.806;2022-09-13T05:56:11;14.90;99.90
35668;DHT22;22158;59.280;17.806;2022-09-13T05:58:45;14.90;99.90
35668;DHT22;22158;59.280;17.806;2022-09-13T06:01:12;14.90;99.90
35668;DHT22;22158;59.280;17.806;2022-09-13T06:03:38;15.00;99.90
35668;DHT22;22158;59.280;17.806;2022-09-13T06:06:04;15.00;99.90
35668;DHT22;22158;59.280;17.806;2022-09-13T06:08:31;15.00;99.90
35668;DHT22;22158;59.280;17.806;2022-09-13T06:11:18;14.90;99.90
35668;DHT22;22158;59.280;17.806;2022-09-13T06:13:44;14.90;99.90
35668;DHT22;22158;59.280;17.806;2022-09-13T06:16:11;14.90;99.90
35668;DHT22;22158;59.280;17.806;2022-09-13T06:18:38;14.90;99.90
35668;DHT22;22158;59.280;17.806;2022-09-13T06:21:10;14.80;99.90
35668;DHT22;22158;59.280;17.806;2022-09-13T06:23:36;14.70;99.90
35668;DHT22;22158;59.280;17.806;2022-09-13T06:26:08;14.80;99.90
35668;DHT22;22158;59.280;17.806;2022-09-13T06:28:35;14.80;99.90
35668;DHT22;22158;59.280;17.806;2022-09-13T06:31:06;14.80;99.90
35668;DHT22;22158;59.280;17.806;2022-09-13T06:33:32;14.80;99.90
35668;DHT22;22158;59.280;17.806;2022-09-13T06:36:02;14.70;99.90
35668;DHT22;22158;59.280;17.806;2022-09-13T06:38:28;14.80;99.90
35668;DHT22;22158;59.280;17.806;2022-09-13T06:43:31;14.70;99.90
35668;DHT22;22158;59.280;17.806;2022-09-13T06:46:07;14.80;99.90
35668;DHT22;22158;59.280;17.806;2022-09-13T06:48:35;14.80;99.90
35668;DHT22;22158;59.280;17.806;2022-09-13T06:51:03;14.80;99.90
35668;DHT22;22158;59.280;17.806;2022-09-13T06:53:29;14.70;99.90
35668;DHT22;22158;59.280;17.806;2022-09-13T06:56:05;14.70;99.90
35668;DHT22;22158;59.280;17.806;2022-09-13T06:58:33;14.80;99.90
35668;DHT22;22158;59.280;17.806;2022-09-13T07:01:12;14.80;99.90
35668;DHT22;22158;59.280;17.806;2022-09-13T07:03:43;14.80;99.90
35668;DHT22;22158;59.280;17.806;2022-09-13T07:06:16;14.70;99.90
35668;DHT22;22158;59.280;17.806;2022-09-13T07:08:44;14.70;99.90
35668;DHT22;22158;59.280;17.806;2022-09-13T07:11:12;14.70;99.90
35668;DHT22;22158;59.280;17.806;2022-09-13T07:13:38;14.70;99.90
35668;DHT22;22158;59.280;17.806;2022-09-13T07:16:09;14.70;99.90
35668;DHT22;22158;59.280;17.806;2022-09-13T07:18:35;14.70;99.90
35668;DHT22;22158;59.280;17.806;2022-09-13T07:21:06;14.70;99.90
35668;DHT22;22158;59.280;17.806;2022-09-13T07:23:34;14.70;99.90
35668;DHT22;22158;59.280;17.806;2022-09-13T07:26:00;14.70;99.90
35668;DHT22;22158;59.280;17.806;2022-09-13T07:28:31;14.60;99.90
35668;DHT22;22158;59.280;17.806;2022-09-13T07:31:04;14.50;99.90
35668;DHT22;22158;59.280;17.806;2022-09-13T07:33:30;14.50;99.90
35668;DHT22;22158;59.280;17.806;2022-09-13T07:35:57;14.50;99.90
35668;DHT22;22158;59.280;17.806;2022-09-13T07:38:24;14.50;99.90
35668;DHT22;22158;59.280;17.806;2022-09-13T07:40:54;14.50;99.90
35668;DHT22;22158;59.280;17.806;2022-09-13T07:43:21;14.50;99.90
35668;DHT22;22158;59.280;17.806;2022-09-13T07:45:46;14.50;99.90
35668;DHT22;22158;59.280;17.806;2022-09-13T07:48:12;14.50;99.90
35668;DHT22;22158;59.280;17.806;2022-09-13T07:50:37;14.50;99.90
35668;DHT22;22158;59.280;17.806;2022-09-13T07:53:03;14.50;99.90
35668;DHT22;22158;59.280;17.806;2022-09-13T07:55:29;14.50;99.90
35668;DHT22;22158;59.280;17.806;2022-09-13T07:57:55;14.50;99.90
35668;DHT22;22158;59.280;17.806;2022-09-13T08:00:22;14.50;99.90
35668;DHT22;22158;59.280;17.806;2022-09-13T08:02:49;14.40;99.90
35668;DHT22;22158;59.280;17.806;2022-09-13T08:05:15;14.40;99.90
35668;DHT22;22158;59.280;17.806;2022-09-13T08:07:40;14.40;99.90
35668;DHT22;22158;59.280;17.806;2022-09-13T08:10:06;14.40;99.90
35668;DHT22;22158;59.280;17.806;2022-09-13T08:12:32;14.40;99.90
35668;DHT22;22158;59.280;17.806;2022-09-13T08:14:57;14.30;99.90
35668;DHT22;22158;59.280;17.806;2022-09-13T08:17:23;14.30;99.90
35668;DHT22;22158;59.280;17.806;2022-09-13T08:19:49;14.30;99.90
35668;DHT22;22158;59.280;17.806;2022-09-13T08:22:14;14.30;99.90
35668;DHT22;22158;59.280;17.806;2022-09-13T08:24:40;14.30;99.90
35668;DHT22;22158;59.280;17.806;2022-09-13T08:27:05;14.20;99.90
35668;DHT22;22158;59.280;17.806;2022-09-13T08:29:31;14.30;99.90
35668;DHT22;22158;59.280;17.806;2022-09-13T08:31:57;14.20;99.90
35668;DHT22;22158;59.280;17.806;2022-09-13T08:34:22;14.30;99.90
35668;DHT22;22158;59.280;17.806;2022-09-13T08:36:48;14.30;99.90
35668;DHT22;22158;59.280;17.806;2022-09-13T08:39:13;14.30;99.90
35668;DHT22;22158;59.280;17.806;2022-09-13T08:49:34;14.30;99.90
35668;DHT22;22158;59.280;17.806;2022-09-13T08:54:53;14.40;99.90
35668;DHT22;22158;59.280;17.806;2022-09-13T08:57:37;14.30;99.90
35668;DHT22;22158;59.280;17.806;2022-09-13T09:05:32;14.30;99.90
35668;DHT22;22158;59.280;17.806;2022-09-13T09:08:05;14.30;99.90
35668;DHT22;22158;59.280;17.806;2022-09-13T09:10:40;14.30;99.90
35668;DHT22;22158;59.280;17.806;2022-09-13T09:13:28;14.30;99.90
35668;DHT22;22158;59.280;17.806;2022-09-13T09:18:39;14.30;99.90
35668;DHT22;22158;59.280;17.806;2022-09-13T09:21:13;14.40;99.90
35668;DHT22;22158;59.280;17.806;2022-09-13T09:23:53;14.40;99.90
35668;DHT22;22158;59.280;17.806;2022-09-13T09:26:24;14.40;99.90
35668;DHT22;22158;59.280;17.806;2022-09-13T09:31:26;14.50;99.90
35668;DHT22;22158;59.280;17.806;2022-09-13T09:37:10;14.50;99.90
35668;DHT22;22158;59.280;17.806;2022-09-13T09:39:38;14.50;99.90
35668;DHT22;22158;59.280;17.806;2022-09-13T09:42:21;14.60;99.90
35668;DHT22;22158;59.280;17.806;2022-09-13T09:44:58;14.70;99.90
35668;DHT22;22158;59.280;17.806;2022-09-13T09:47:27;14.80;99.90
35668;DHT22;22158;59.280;17.806;2022-09-13T09:49:58;14.80;99.90
35668;DHT22;22158;59.280;17.806;2022-09-13T09:55:49;15.00;99.90
35668;DHT22;22158;59.280;17.806;2022-09-13T09:58:08;15.10;99.90
35668;DHT22;22158;59.280;17.806;2022-09-13T10:00:49;15.20;99.90
35668;DHT22;22158;59.280;17.806;2022-09-13T10:03:22;15.30;99.90
35668;DHT22;22158;59.280;17.806;2022-09-13T10:05:49;15.30;99.90
35668;DHT22;22158;59.280;17.806;2022-09-13T10:08:27;15.40;99.90
35668;DHT22;22158;59.280;17.806;2022-09-13T10:10:56;15.40;99.90
35668;DHT22;22158;59.280;17.806;2022-09-13T10:13:23;15.40;99.90
35668;DHT22;22158;59.280;17.806;2022-09-13T10:18:20;15.40;99.90
35668;DHT22;22158;59.280;17.806;2022-09-13T10:21:21;15.30;99.90
35668;DHT22;22158;59.280;17.806;2022-09-13T10:23:49;15.20;99.90
35668;DHT22;22158;59.280;17.806;2022-09-13T10:26:18;15.20;99.90
35668;DHT22;22158;59.280;17.806;2022-09-13T10:31:19;15.00;99.90
35668;DHT22;22158;59.280;17.806;2022-09-13T10:36:23;15.00;99.90
35668;DHT22;22158;59.280;17.806;2022-09-13T10:41:22;15.00;99.90
35668;DHT22;22158;59.280;17.806;2022-09-13T10:43:56;15.10;99.90
35668;DHT22;22158;59.280;17.806;2022-09-13T10:46:22;15.20;99.90
35668;DHT22;22158;59.280;17.806;2022-09-13T10:48:48;15.30;99.90
35668;DHT22;22158;59.280;17.806;2022-09-13T10:56:33;15.10;99.90
35668;DHT22;22158;59.280;17.806;2022-09-13T10:59:19;15.10;99.90
35668;DHT22;22158;59.280;17.806;2022-09-13T11:22:02;14.90;99.90
35668;DHT22;22158;59.280;17.806;2022-09-13T11:24:38;15.00;99.90
35668;DHT22;22158;59.280;17.806;2022-09-13T11:30:20;14.90;99.90
35668;DHT22;22158;59.280;17.806;2022-09-13T11:38:55;15.10;99.90
35668;DHT22;22158;59.280;17.806;2022-09-13T11:44:27;15.20;99.90
35668;DHT22;22158;59.280;17.806;2022-09-13T11:57:52;15.10;99.90
35668;DHT22;22158;59.280;17.806;2022-09-13T12:00:26;15.00;99.90
35668;DHT22;22158;59.280;17.806;2022-09-13T12:05:34;15.10;99.90
35668;DHT22;22158;59.280;17.806;2022-09-13T12:08:18;15.10;99.90
35668;DHT22;22158;59.280;17.806;2022-09-13T12:13:29;15.00;99.90
35668;DHT22;22158;59.280;17.806;2022-09-13T12:16:03;15.00;99.90
35668;DHT22;22158;59.280;17.806;2022-09-13T12:18:46;15.00;99.90
35668;DHT22;22158;59.280;17.806;2022-09-13T12:21:16;15.00;99.90
35668;DHT22;22158;59.280;17.806;2022-09-13T12:29:23;14.80;99.90
35668;DHT22;22158;59.280;17.806;2022-09-13T12:31:51;14.70;99.90
35668;DHT22;22158;59.280;17.806;2022-09-13T12:34:27;14.70;99.90
35668;DHT22;22158;59.280;17.806;2022-09-13T12:42:59;14.80;99.90
35668;DHT22;22158;59.280;17.806;2022-09-13T12:45:45;14.90;99.90
35668;DHT22;22158;59.280;17.806;2022-09-13T12:51:19;15.00;99.90
35668;DHT22;22158;59.280;17.806;2022-09-13T13:02:26;14.90;99.90
35668;DHT22;22158;59.280;17.806;2022-09-13T13:04:57;14.90;99.90
35668;DHT22;22158;59.280;17.806;2022-09-13T13:07:25;14.90;99.90
35668;DHT22;22158;59.280;17.806;2022-09-13T13:09:54;14.90;99.90
35668;DHT22;22158;59.280;17.806;2022-09-13T13:12:35;14.90;99.90
35668;DHT22;22158;59.280;17.806;2022-09-13T13:15:05;14.80;99.90
35668;DHT22;22158;59.280;17.806;2022-09-13T13:20:44;14.70;99.90
35668;DHT22;22158;59.280;17.806;2022-09-13T13:23:26;14.70;99.90
35668;DHT22;22158;59.280;17.806;2022-09-13T13:33:51;14.90;99.90
35668;DHT22;22158;59.280;17.806;2022-09-13T13:39:12;15.00;99.90
35668;DHT22;22158;59.280;17.806;2022-09-13T13:58:13;15.00;99.90
35668;DHT22;22158;59.280;17.806;2022-09-13T14:00:46;15.10;99.90
35668;DHT22;22158;59.280;17.806;2022-09-13T14:03:21;15.10;99.90
35668;DHT22;22158;59.280;17.806;2022-09-13T14:19:49;16.10;99.90
35668;DHT22;22158;59.280;17.806;2022-09-13T14:22:21;16.20;99.90
35668;DHT22;22158;59.280;17.806;2022-09-13T14:24:58;16.20;99.90
35668;DHT22;22158;59.280;17.806;2022-09-13T14:27:39;16.10;99.90
35668;DHT22;22158;59.280;17.806;2022-09-13T14:30:22;16.00;99.90
35668;DHT22;22158;59.280;17.806;2022-09-13T14:32:51;16.00;99.90
35668;DHT22;22158;59.280;17.806;2022-09-13T14:35:33;16.00;99.90
35668;DHT22;22158;59.280;17.806;2022-09-13T14:40:49;15.80;99.90
35668;DHT22;22158;59.280;17.806;2022-09-13T14:43:20;15.70;99.90
35668;DHT22;22158;59.280;17.806;2022-09-13T14:46:23;15.70;99.90
35668;DHT22;22158;59.280;17.806;2022-09-13T14:48:51;15.70;99.90
35668;DHT22;22158;59.280;17.806;2022-09-13T14:51:36;15.70;99.90
35668;DHT22;22158;59.280;17.806;2022-09-13T14:54:36;15.60;99.90
35668;DHT22;22158;59.280;17.806;2022-09-13T14:57:01;15.50;99.90
35668;DHT22;22158;59.280;17.806;2022-09-13T14:59:49;15.50;99.90
35668;DHT22;22158;59.280;17.806;2022-09-13T15:05:15;15.40;99.90
35668;DHT22;22158;59.280;17.806;2022-09-13T15:07:42;15.40;99.90
35668;DHT22;22158;59.280;17.806;2022-09-13T15:12:48;15.40;99.90
35668;DHT22;22158;59.280;17.806;2022-09-13T15:23:31;15.80;99.90
35668;DHT22;22158;59.280;17.806;2022-09-13T15:26:10;15.80;99.90
35668;DHT22;22158;59.280;17.806;2022-09-13T15:28:55;15.70;99.90
35668;DHT22;22158;59.280;17.806;2022-09-13T15:31:30;15.80;99.90
35668;DHT22;22158;59.280;17.806;2022-09-13T15:36:41;15.80;99.90
35668;DHT22;22158;59.280;17.806;2022-09-13T15:41:39;16.00;99.90
35668;DHT22;22158;59.280;17.806;2022-09-13T15:44:08;16.00;99.90
35668;DHT22;22158;59.280;17.806;2022-09-13T15:46:43;16.00;99.90
35668;DHT22;22158;59.280;17.806;2022-09-13T15:49:15;16.00;99.90
35668;DHT22;22158;59.280;17.806;2022-09-13T15:51:42;15.90;99.90
35668;DHT22;22158;59.280;17.806;2022-09-13T15:54:15;15.80;99.90
35668;DHT22;22158;59.280;17.806;2022-09-13T15:56:44;15.70;99.90
35668;DHT22;22158;59.280;17.806;2022-09-13T15:59:14;15.60;99.90
35668;DHT22;22158;59.280;17.806;2022-09-13T16:01:41;15.50;99.90
35668;DHT22;22158;59.280;17.806;2022-09-13T16:04:07;15.40;99.90
35668;DHT22;22158;59.280;17.806;2022-09-13T16:06:34;15.40;99.90
35668;DHT22;22158;59.280;17.806;2022-09-13T16:09:00;15.30;99.90
35668;DHT22;22158;59.280;17.806;2022-09-13T16:11:27;15.30;99.90
35668;DHT22;22158;59.280;17.806;2022-09-13T16:13:53;15.20;99.90
35668;DHT22;22158;59.280;17.806;2022-09-13T16:16:18;15.10;99.90
35668;DHT22;22158;59.280;17.806;2022-09-13T16:18:44;15.10;99.90
35668;DHT22;22158;59.280;17.806;2022-09-13T16:21:10;15.10;99.90
35668;DHT22;22158;59.280;17.806;2022-09-13T16:23:35;15.00;99.90
35668;DHT22;22158;59.280;17.806;2022-09-13T16:26:01;15.00;99.90
35668;DHT22;22158;59.280;17.806;2022-09-13T16:28:31;15.00;99.90
35668;DHT22;22158;59.280;17.806;2022-09-13T16:30:57;14.90;99.90
35668;DHT22;22158;59.280;17.806;2022-09-13T16:33:23;14.90;99.90
35668;DHT22;22158;59.280;17.806;2022-09-13T16:35:48;14.90;99.90
35668;DHT22;22158;59.280;17.806;2022-09-13T16:38:14;14.90;99.90
35668;DHT22;22158;59.280;17.806;2022-09-13T16:40:41;14.80;99.90
35668;DHT22;22158;59.280;17.806;2022-09-13T16:43:08;14.80;99.90
35668;DHT22;22158;59.280;17.806;2022-09-13T16:45:33;14.80;99.90
35668;DHT22;22158;59.280;17.806;2022-09-13T16:47:59;14.80;99.90
35668;DHT22;22158;59.280;17.806;2022-09-13T16:50:25;14.80;99.90
35668;DHT22;22158;59.280;17.806;2022-09-13T16:52:50;14.80;99.90
35668;DHT22;22158;59.280;17.806;2022-09-13T16:55:16;14.80;99.90
35668;DHT22;22158;59.280;17.806;2022-09-13T16:57:42;14.80;99.90
35668;DHT22;22158;59.280;17.806;2022-09-13T17:00:10;14.80;99.90
35668;DHT22;22158;59.280;17.806;2022-09-13T17:02:37;14.70;99.90
35668;DHT22;22158;59.280;17.806;2022-09-13T17:05:03;14.70;99.90
35668;DHT22;22158;59.280;17.806;2022-09-13T17:07:32;14.70;99.90
35668;DHT22;22158;59.280;17.806;2022-09-13T17:09:58;14.70;99.90
35668;DHT22;22158;59.280;17.806;2022-09-13T17:12:24;14.70;99.90
35668;DHT22;22158;59.280;17.806;2022-09-13T17:14:50;14.70;99.90
35668;DHT22;22158;59.280;17.806;2022-09-13T17:17:16;14.70;99.90
35668;DHT22;22158;59.280;17.806;2022-09-13T17:19:42;14.60;99.90
35668;DHT22;22158;59.280;17.806;2022-09-13T17:22:09;14.70;99.90
35668;DHT22;22158;59.280;17.806;2022-09-13T17:24:35;14.70;99.90
35668;DHT22;22158;59.280;17.806;2022-09-13T17:27:03;14.70;99.90
35668;DHT22;22158;59.280;17.806;2022-09-13T17:29:32;14.60;99.90
35668;DHT22;22158;59.280;17.806;2022-09-13T17:31:59;14.60;99.90
35668;DHT22;22158;59.280;17.806;2022-09-13T17:34:25;14.60;99.90
35668;DHT22;22158;59.280;17.806;2022-09-13T17:36:52;14.60;99.90
35668;DHT22;22158;59.280;17.806;2022-09-13T17:39:18;14.60;99.90
35668;DHT22;22158;59.280;17.806;2022-09-13T17:41:44;14.60;99.90
35668;DHT22;22158;59.280;17.806;2022-09-13T17:44:09;14.60;99.90
35668;DHT22;22158;59.280;17.806;2022-09-13T17:46:37;14.60;99.90
35668;DHT22;22158;59.280;17.806;2022-09-13T17:49:02;14.60;99.90
35668;DHT22;22158;59.280;17.806;2022-09-13T17:51:30;14.60;99.90
35668;DHT22;22158;59.280;17.806;2022-09-13T17:53:58;14.50;99.90
35668;DHT22;22158;59.280;17.806;2022-09-13T17:56:32;14.50;99.90
35668;DHT22;22158;59.280;17.806;2022-09-13T17:59:08;14.40;99.90
35668;DHT22;22158;59.280;17.806;2022-09-13T18:01:35;14.40;99.90
35668;DHT22;22158;59.280;17.806;2022-09-13T18:04:02;14.40;99.90
35668;DHT22;22158;59.280;17.806;2022-09-13T18:06:28;14.40;99.90
35668;DHT22;22158;59.280;17.806;2022-09-13T18:08:54;14.30;99.90
35668;DHT22;22158;59.280;17.806;2022-09-13T18:11:20;14.30;99.90
35668;DHT22;22158;59.280;17.806;2022-09-13T18:13:46;14.20;99.90
35668;DHT22;22158;59.280;17.806;2022-09-13T18:16:21;14.20;99.90
35668;DHT22;22158;59.280;17.806;2022-09-13T18:18:48;14.20;99.90
35668;DHT22;22158;59.280;17.806;2022-09-13T18:21:15;14.10;99.90
35668;DHT22;22158;59.280;17.806;2022-09-13T18:23:44;14.10;99.90
35668;DHT22;22158;59.280;17.806;2022-09-13T18:26:12;14.00;99.90
35668;DHT22;22158;59.280;17.806;2022-09-13T18:28:39;13.90;99.90
35668;DHT22;22158;59.280;17.806;2022-09-13T18:31:07;13.90;99.90
35668;DHT22;22158;59.280;17.806;2022-09-13T18:33:34;13.80;99.90
35668;DHT22;22158;59.280;17.806;2022-09-13T18:36:06;13.70;99.90
35668;DHT22;22158;59.280;17.806;2022-09-13T18:38:40;13.70;99.90
35668;DHT22;22158;59.280;17.806;2022-09-13T18:43:41;13.50;99.90
35668;DHT22;22158;59.280;17.806;2022-09-13T18:46:12;13.40;99.90
35668;DHT22;22158;59.280;17.806;2022-09-13T18:48:40;13.40;99.90
35668;DHT22;22158;59.280;17.806;2022-09-13T18:51:36;13.40;99.90
35668;DHT22;22158;59.280;17.806;2022-09-13T18:54:03;13.30;99.90
35668;DHT22;22158;59.280;17.806;2022-09-13T18:56:29;13.40;99.90
35668;DHT22;22158;59.280;17.806;2022-09-13T18:58:57;13.30;99.90
35668;DHT22;22158;59.280;17.806;2022-09-13T19:01:28;13.30;99.90
35668;DHT22;22158;59.280;17.806;2022-09-13T19:04:03;13.30;99.90
35668;DHT22;22158;59.280;17.806;2022-09-13T19:06:34;13.30;99.90
35668;DHT22;22158;59.280;17.806;2022-09-13T19:09:01;13.40;99.90
35668;DHT22;22158;59.280;17.806;2022-09-13T19:11:32;13.40;99.90
35668;DHT22;22158;59.280;17.806;2022-09-13T19:13:58;13.50;99.90
35668;DHT22;22158;59.280;17.806;2022-09-13T19:16:24;13.50;99.90
35668;DHT22;22158;59.280;17.806;2022-09-13T19:18:51;13.50;99.90
35668;DHT22;22158;59.280;17.806;2022-09-13T19:21:22;13.50;99.90
35668;DHT22;22158;59.280;17.806;2022-09-13T19:23:49;13.50;99.90
35668;DHT22;22158;59.280;17.806;2022-09-13T19:28:50;13.50;99.90
35668;DHT22;22158;59.280;17.806;2022-09-13T19:31:21;13.50;99.90
35668;DHT22;22158;59.280;17.806;2022-09-13T19:33:47;13.50;99.90
35668;DHT22;22158;59.280;17.806;2022-09-13T19:36:19;13.40;99.90